createdAt,value
2024-02-14T00:00:01.950Z,68.4
2024-02-14T00:01:01.601Z,68.5
2024-02-14T00:02:01.705Z,68.5
2024-02-14T00:03:01.899Z,68.5
2024-02-14T00:04:01.413Z,68.5
2024-02-14T00:05:01.471Z,68.5
2024-02-14T00:06:01.547Z,68.5
2024-02-14T00:07:01.682Z,68.7
2024-02-14T00:08:01.756Z,68.9
2024-02-14T00:09:01.878Z,68.9
2024-02-14T00:10:01.354Z,68.9
2024-02-14T00:11:01.685Z,68.9
2024-02-14T00:12:00.971Z,68.7
2024-02-14T00:13:01.123Z,68.9
2024-02-14T00:14:01.205Z,68.9
2024-02-14T00:15:01.301Z,68.9
2024-02-14T00:16:01.388Z,68.7
2024-02-14T00:17:01.396Z,68.4
2024-02-14T00:18:01.678Z,68.5
2024-02-14T00:19:01.062Z,68.7
2024-02-14T00:20:01.768Z,68.5
2024-02-14T00:21:01.904Z,68.5
2024-02-14T00:22:01.405Z,68.4
2024-02-14T00:23:01.457Z,68.4
2024-02-14T00:24:01.586Z,68
2024-02-14T00:25:01.703Z,67.8
2024-02-14T00:26:01.757Z,67.8
2024-02-14T00:27:01.016Z,68
2024-02-14T00:28:01.416Z,68
2024-02-14T00:29:01.637Z,68
2024-02-14T00:30:01.741Z,68
2024-02-14T00:31:01.794Z,67.8
2024-02-14T00:32:00.838Z,67.8
2024-02-14T00:33:01.115Z,67.8
2024-02-14T00:34:01.449Z,67.6
2024-02-14T00:35:01.965Z,67.6
2024-02-14T00:36:01.339Z,67.6
2024-02-14T00:37:01.579Z,67.6
2024-02-14T00:38:01.646Z,67.8
2024-02-14T00:39:01.816Z,68
2024-02-14T00:40:01.001Z,68
2024-02-14T00:41:01.015Z,68.2
2024-02-14T00:42:01.291Z,68
2024-02-14T00:43:01.387Z,68
2024-02-14T00:44:01.599Z,68
2024-02-14T00:45:01.846Z,68.2
2024-02-14T00:46:01.044Z,68
2024-02-14T00:47:01.233Z,67.6
2024-02-14T00:48:01.411Z,67.5
2024-02-14T00:49:01.903Z,66.7
2024-02-14T00:50:01.090Z,66.6
2024-02-14T00:51:01.190Z,67.1
2024-02-14T00:52:01.271Z,67.1
2024-02-14T00:53:01.670Z,67.1
2024-02-14T00:54:01.851Z,67.1
2024-02-14T00:55:01.327Z,67.1
2024-02-14T00:56:01.369Z,67.5
2024-02-14T00:57:01.402Z,67.6
2024-02-14T00:58:01.573Z,68
2024-02-14T00:59:01.617Z,68
2024-02-14T01:00:01.931Z,68
2024-02-14T01:01:01.515Z,68
2024-02-14T01:02:01.641Z,68.2
2024-02-14T01:03:01.865Z,68.4
2024-02-14T01:04:01.290Z,68
2024-02-14T01:05:01.356Z,67.8
2024-02-14T01:06:01.607Z,67.6
2024-02-14T01:07:01.700Z,67.6
2024-02-14T01:08:01.951Z,67.6
2024-02-14T01:09:01.576Z,67.5
2024-02-14T01:10:01.347Z,67.3
2024-02-14T01:11:01.382Z,67.3
2024-02-14T01:12:01.776Z,67.5
2024-02-14T01:13:01.843Z,67.5
2024-02-14T01:14:01.310Z,67.3
2024-02-14T01:15:01.424Z,67.5
2024-02-14T01:16:01.530Z,68
2024-02-14T01:17:01.590Z,68
2024-02-14T01:18:01.156Z,68.5
2024-02-14T01:19:01.893Z,68.9
2024-02-14T01:20:01.383Z,69.3
2024-02-14T01:21:01.569Z,69.1
2024-02-14T01:22:01.656Z,68.7
2024-02-14T01:23:01.696Z,68.5
2024-02-14T01:24:01.733Z,68.5
2024-02-14T01:25:01.398Z,68.7
2024-02-14T01:26:01.403Z,68.7
2024-02-14T01:27:01.458Z,68.7
2024-02-14T01:28:01.540Z,68.7
2024-02-14T01:29:01.590Z,69.1
2024-02-14T01:30:01.702Z,69.3
2024-02-14T01:31:01.989Z,69.6
2024-02-14T01:32:01.254Z,69.6
2024-02-14T01:33:02.481Z,69.8
2024-02-14T01:34:01.342Z,70.2
2024-02-14T01:35:01.723Z,70.3
2024-02-14T01:36:01.853Z,70.3
2024-02-14T01:37:01.217Z,70.2
2024-02-14T01:38:01.434Z,70.3
2024-02-14T01:39:01.519Z,70.5
2024-02-14T01:40:01.608Z,70.7
2024-02-14T01:41:01.812Z,70.7
2024-02-14T01:42:01.538Z,70.7
2024-02-14T01:43:01.632Z,70.7
2024-02-14T01:44:01.684Z,70.9
2024-02-14T01:45:01.769Z,71.1
2024-02-14T01:46:01.803Z,71.1
2024-02-14T01:47:01.204Z,71.1
2024-02-14T01:48:01.366Z,71.2
2024-02-14T01:49:01.677Z,71.2
2024-02-14T01:50:01.149Z,71.2
2024-02-14T01:51:01.311Z,71.1
2024-02-14T01:52:01.376Z,71.2
2024-02-14T01:53:01.445Z,71.2
2024-02-14T01:54:01.529Z,71.4
2024-02-14T01:55:01.676Z,71.4
2024-02-14T01:56:01.715Z,71.4
2024-02-14T01:57:01.129Z,71.4
2024-02-14T01:58:01.405Z,71.6
2024-02-14T01:59:01.674Z,71.6
2024-02-14T02:00:01.310Z,71.4
2024-02-14T02:01:01.491Z,71.4
2024-02-14T02:02:01.757Z,71.1
2024-02-14T02:03:01.499Z,70.9
2024-02-14T02:04:01.701Z,71.1
2024-02-14T02:05:01.772Z,71.1
2024-02-14T02:06:01.553Z,70.9
2024-02-14T02:07:01.125Z,71.2
2024-02-14T02:08:01.210Z,71.4
2024-02-14T02:09:01.434Z,71.4
2024-02-14T02:10:01.670Z,71.1
2024-02-14T02:11:01.328Z,70.7
2024-02-14T02:12:01.560Z,70.5
2024-02-14T02:13:01.647Z,70.3
2024-02-14T02:14:01.841Z,70.5
2024-02-14T02:15:01.171Z,70.7
2024-02-14T02:16:01.248Z,70.5
2024-02-14T02:17:01.331Z,70.3
2024-02-14T02:18:01.639Z,69.8
2024-02-14T02:19:01.275Z,70.3
2024-02-14T02:20:03.158Z,70.7
2024-02-14T02:21:01.558Z,70.9
2024-02-14T02:22:01.614Z,70.9
2024-02-14T02:23:01.639Z,70.9
2024-02-14T02:24:01.766Z,70.7
2024-02-14T02:25:01.167Z,70.7
2024-02-14T02:26:01.225Z,70.9
2024-02-14T02:27:01.408Z,71.1
2024-02-14T02:28:01.456Z,71.2
2024-02-14T02:29:01.571Z,71.1
2024-02-14T02:30:01.715Z,70.3
2024-02-14T02:31:01.095Z,69.8
2024-02-14T02:32:01.122Z,69.6
2024-02-14T02:33:01.265Z,70
2024-02-14T02:34:01.574Z,69.6
2024-02-14T02:35:01.150Z,69.3
2024-02-14T02:36:01.258Z,68.9
2024-02-14T02:37:01.315Z,68.5
2024-02-14T02:38:01.457Z,68.5
2024-02-14T02:39:01.574Z,68.5
2024-02-14T02:40:01.701Z,68.4
2024-02-14T02:41:01.190Z,68.5
2024-02-14T02:42:01.310Z,68.5
2024-02-14T02:43:01.495Z,68.5
2024-02-14T02:44:01.612Z,68.4
2024-02-14T02:45:01.787Z,68
2024-02-14T02:46:01.074Z,67.6
2024-02-14T02:47:01.121Z,67.6
2024-02-14T02:48:01.719Z,68.4
2024-02-14T02:49:01.301Z,68.7
2024-02-14T02:50:01.482Z,69.3
2024-02-14T02:51:01.599Z,69.3
2024-02-14T02:52:01.087Z,69.3
2024-02-14T02:53:01.112Z,69.1
2024-02-14T02:54:01.303Z,68.9
2024-02-14T02:55:01.449Z,68.7
2024-02-14T02:56:01.512Z,68.4
2024-02-14T02:57:01.732Z,68.4
2024-02-14T02:58:01.082Z,68
2024-02-14T02:59:01.114Z,68
2024-02-14T03:00:01.294Z,68.5
2024-02-14T03:01:01.480Z,69.1
2024-02-14T03:02:01.596Z,69.3
2024-02-14T03:03:01.750Z,68.9
2024-02-14T03:04:01.160Z,68.5
2024-02-14T03:05:01.438Z,68.4
2024-02-14T03:06:01.635Z,68.2
2024-02-14T03:07:01.104Z,67.8
2024-02-14T03:08:01.175Z,67.6
2024-02-14T03:09:01.323Z,67.5
2024-02-14T03:10:01.442Z,67.3
2024-02-14T03:11:01.684Z,67.3
2024-02-14T03:12:01.772Z,67.3
2024-02-14T03:13:01.147Z,67.3
2024-02-14T03:15:01.299Z,67.3
2024-02-14T03:16:01.341Z,67.3
2024-02-14T03:17:01.423Z,67.3
2024-02-14T03:18:01.517Z,67.1
2024-02-14T03:19:01.070Z,66.9
2024-02-14T03:20:03.767Z,66.9
2024-02-14T03:21:01.300Z,67.3
2024-02-14T03:22:01.420Z,67.1
2024-02-14T03:23:01.003Z,67.1
2024-02-14T03:24:01.136Z,66.6
2024-02-14T03:25:01.500Z,66.4
2024-02-14T03:26:01.521Z,67.1
2024-02-14T03:27:01.081Z,68
2024-02-14T03:29:01.453Z,68.4
2024-02-14T03:30:01.570Z,68.2
2024-02-14T03:31:01.176Z,68.2
2024-02-14T03:32:01.226Z,68
2024-02-14T03:33:01.433Z,67.5
2024-02-14T03:34:01.306Z,67.5
2024-02-14T03:35:01.359Z,67.1
2024-02-14T03:39:01.050Z,68.5
2024-02-14T03:40:01.184Z,68
2024-02-14T03:41:01.248Z,67.8
2024-02-14T03:42:01.279Z,68
2024-02-14T03:43:01.402Z,68.2
2024-02-14T03:44:01.569Z,68
2024-02-14T03:45:01.066Z,67.8
2024-02-14T03:46:01.174Z,68
2024-02-14T03:47:01.231Z,68
2024-02-14T03:48:01.439Z,68.2
2024-02-14T03:49:01.793Z,68.4
2024-02-14T03:50:01.002Z,68.2
2024-02-14T03:51:01.083Z,67.8
2024-02-14T03:52:01.223Z,67.3
2024-02-14T03:53:01.292Z,67.1
2024-02-14T03:54:01.500Z,67.1
2024-02-14T03:55:01.548Z,67.1
2024-02-14T03:56:01.651Z,67.1
2024-02-14T03:57:01.020Z,67.3
2024-02-14T03:58:01.117Z,67.1
2024-02-14T03:59:01.181Z,67.1
2024-02-14T04:00:01.257Z,67.1
2024-02-14T04:01:01.401Z,66.9
2024-02-14T04:02:01.511Z,66.9
2024-02-14T04:03:01.009Z,67.6
2024-02-14T04:04:01.217Z,67.6
2024-02-14T04:05:01.332Z,67.5
2024-02-14T04:06:01.518Z,67.6
2024-02-14T04:07:00.989Z,68.4
2024-02-14T04:08:01.114Z,68.9
2024-02-14T04:15:01.902Z,69.6
2024-02-14T04:16:00.975Z,68.9
2024-02-14T04:17:01.816Z,68.9
2024-02-14T04:18:03.160Z,68.9
2024-02-14T04:19:01.889Z,68.9
2024-02-14T04:20:01.656Z,68.7
2024-02-14T04:21:01.588Z,68.5
2024-02-14T04:23:01.451Z,68.5
2024-02-14T04:24:01.782Z,68.2
2024-02-14T04:25:00.892Z,68
2024-02-14T04:26:00.974Z,67.8
2024-02-14T04:27:01.397Z,67.6
2024-02-14T04:28:01.123Z,67.5
2024-02-14T04:29:01.209Z,67.3
2024-02-14T04:30:01.652Z,67.3
2024-02-14T04:31:01.834Z,67.1
2024-02-14T04:32:00.991Z,67.1
2024-02-14T04:33:01.604Z,66.9
2024-02-14T04:34:01.932Z,66.9
2024-02-14T04:35:01.725Z,66.9
2024-02-14T04:36:01.836Z,66.9
2024-02-14T04:37:00.915Z,66.9
2024-02-14T04:38:01.451Z,66.9
2024-02-14T04:39:01.610Z,66.9
2024-02-14T04:40:01.729Z,66.9
2024-02-14T04:41:00.799Z,66.7
2024-02-14T04:42:02.626Z,66.7
2024-02-14T04:43:01.518Z,66.7
2024-02-14T04:44:00.831Z,66.7
2024-02-14T04:45:01.208Z,66.7
2024-02-14T04:46:01.365Z,66.9
2024-02-14T04:47:01.602Z,66.7
2024-02-14T04:48:01.315Z,66.7
2024-02-14T04:49:01.729Z,66.7
2024-02-14T04:50:00.893Z,66.7
2024-02-14T04:51:02.819Z,66.7
2024-02-14T04:52:01.708Z,66.7
2024-02-14T04:53:01.490Z,66.7
2024-02-14T04:54:01.828Z,66.7
2024-02-14T04:55:01.754Z,66.7
2024-02-14T04:56:00.983Z,66.7
2024-02-14T04:57:03.514Z,66.7
2024-02-14T04:58:00.865Z,66.7
2024-02-14T04:59:00.876Z,66.7
2024-02-14T05:00:00.987Z,66.7
2024-02-14T05:01:01.219Z,66.7
2024-02-14T05:02:01.342Z,66.7
2024-02-14T05:03:01.521Z,66.7
2024-02-14T05:04:01.666Z,66.7
2024-02-14T05:05:00.874Z,66.7
2024-02-14T05:06:01.169Z,66.6
2024-02-14T05:07:01.469Z,66.6
2024-02-14T05:08:01.563Z,66.7
2024-02-14T05:09:01.197Z,66.7
2024-02-14T05:10:01.284Z,66.6
2024-02-14T05:11:01.428Z,66.7
2024-02-14T05:12:01.520Z,66.7
2024-02-14T05:13:01.594Z,66.7
2024-02-14T05:14:01.628Z,66.7
2024-02-14T05:15:01.796Z,66.7
2024-02-14T05:16:00.871Z,66.7
2024-02-14T05:17:00.909Z,66.7
2024-02-14T05:18:01.424Z,66.7
2024-02-14T05:19:01.740Z,66.6
2024-02-14T05:20:01.067Z,66.7
2024-02-14T05:21:01.247Z,66.6
2024-02-14T05:22:01.312Z,66.6
2024-02-14T05:23:01.417Z,66.6
2024-02-14T05:24:01.592Z,66.6
2024-02-14T05:25:01.689Z,66.6
2024-02-14T05:26:00.808Z,66.6
2024-02-14T05:27:01.246Z,66.6
2024-02-14T05:28:01.324Z,66.6
2024-02-14T05:29:01.372Z,66.6
2024-02-14T05:30:01.439Z,66.6
2024-02-14T05:31:01.604Z,66.7
2024-02-14T05:32:00.822Z,68.4
2024-02-14T05:33:01.474Z,65.3
2024-02-14T05:34:01.670Z,68.2
2024-02-14T05:35:01.963Z,67.8
2024-02-14T05:36:01.230Z,67.6
2024-02-14T05:37:01.248Z,67.3
2024-02-14T05:38:01.246Z,66.9
2024-02-14T05:40:01.215Z,66.6
2024-02-14T05:41:01.262Z,66.2
2024-02-14T05:42:01.081Z,66
2024-02-14T05:43:01.275Z,65.8
2024-02-14T05:44:01.345Z,65.7
2024-02-14T05:45:01.508Z,65.7
2024-02-14T05:46:01.660Z,65.7
2024-02-14T05:47:01.684Z,65.7
2024-02-14T05:48:01.884Z,65.7
2024-02-14T05:49:01.441Z,65.5
2024-02-14T05:50:01.655Z,65.5
2024-02-14T05:51:00.960Z,65.5
2024-02-14T05:52:01.031Z,65.5
2024-02-14T05:53:01.082Z,65.7
2024-02-14T05:54:01.407Z,65.7
2024-02-14T05:55:01.015Z,65.7
2024-02-14T05:56:01.292Z,65.5
2024-02-14T05:57:01.384Z,65.7
2024-02-14T05:58:01.837Z,65.7
2024-02-14T05:59:00.857Z,65.7
2024-02-14T06:00:03.080Z,65.7
2024-02-14T06:01:01.528Z,65.7
2024-02-14T06:02:01.714Z,65.7
2024-02-14T06:03:01.749Z,65.8
2024-02-14T06:04:01.227Z,65.8
2024-02-14T06:05:01.002Z,65.8
2024-02-14T06:06:01.178Z,65.8
2024-02-14T06:07:00.970Z,65.8
2024-02-14T06:08:01.151Z,65.8
2024-02-14T06:09:01.266Z,65.8
2024-02-14T06:10:01.332Z,66
2024-02-14T06:11:01.452Z,66
2024-02-14T06:12:00.955Z,66
2024-02-14T06:13:01.084Z,66
2024-02-14T06:14:01.238Z,66
2024-02-14T06:15:01.329Z,66
2024-02-14T06:16:01.481Z,66
2024-02-14T06:17:01.498Z,66
2024-02-14T06:18:01.686Z,66
2024-02-14T06:19:01.938Z,66
2024-02-14T06:20:01.141Z,65.8
2024-02-14T06:21:01.339Z,66
2024-02-14T06:22:01.492Z,66
2024-02-14T06:23:05.449Z,66
2024-02-14T06:24:01.221Z,66
2024-02-14T06:25:01.370Z,66
2024-02-14T06:26:01.623Z,66
2024-02-14T06:27:00.919Z,66
2024-02-14T06:28:01.078Z,66
2024-02-14T06:29:01.404Z,66.2
2024-02-14T06:30:01.517Z,66.6
2024-02-14T06:31:01.569Z,66.7
2024-02-14T06:32:01.631Z,66.9
2024-02-14T06:33:02.364Z,67.1
2024-02-14T06:34:01.244Z,67.3
2024-02-14T06:35:01.918Z,67.5
2024-02-14T06:36:01.272Z,67.5
2024-02-14T06:37:01.457Z,67.6
2024-02-14T06:38:04.740Z,67.6
2024-02-14T06:39:00.847Z,67.8
2024-02-14T06:40:01.184Z,67.8
2024-02-14T06:41:01.302Z,68
2024-02-14T06:43:02.119Z,68
2024-02-14T06:44:01.281Z,68.2
2024-02-14T06:45:01.578Z,68.2
2024-02-14T06:46:01.656Z,68.2
2024-02-14T06:47:01.818Z,68.4
2024-02-14T06:48:01.072Z,68.4
2024-02-14T06:49:01.844Z,68.4
2024-02-14T06:50:01.013Z,68.5
2024-02-14T06:51:01.153Z,68.5
2024-02-14T06:52:01.571Z,68.5
2024-02-14T06:53:02.083Z,68.5
2024-02-14T06:54:01.467Z,68.5
2024-02-14T06:55:01.622Z,68.7
2024-02-14T06:56:00.969Z,68.7
2024-02-14T06:57:01.052Z,68.7
2024-02-14T06:58:01.458Z,68.7
2024-02-14T06:59:01.582Z,68.7
2024-02-14T07:00:01.035Z,68.9
2024-02-14T07:01:01.268Z,68.9
2024-02-14T07:02:12.762Z,68.9
2024-02-14T07:04:01.388Z,68.9
2024-02-14T07:05:01.814Z,68.9
2024-02-14T07:06:01.283Z,68.9
2024-02-14T07:07:01.124Z,68.9
2024-02-14T07:08:01.283Z,68.9
2024-02-14T07:09:01.446Z,68.9
2024-02-14T07:10:00.905Z,68.9
2024-02-14T07:11:00.969Z,68.9
2024-02-14T07:12:01.286Z,69.1
2024-02-14T07:13:01.427Z,69.1
2024-02-14T07:14:01.512Z,69.1
2024-02-14T07:15:01.669Z,69.1
2024-02-14T07:16:00.935Z,69.1
2024-02-14T07:17:01.119Z,69.1
2024-02-14T07:18:01.176Z,69.1
2024-02-14T07:19:01.535Z,69.1
2024-02-14T07:20:01.783Z,69.1
2024-02-14T07:21:01.307Z,69.1
2024-02-14T07:22:01.641Z,69.1
2024-02-14T07:23:01.046Z,69.1
2024-02-14T07:24:01.999Z,69.1
2024-02-14T07:25:01.135Z,69.1
2024-02-14T07:26:01.187Z,69.1
2024-02-14T07:27:01.233Z,69.1
2024-02-14T07:28:01.308Z,69.1
2024-02-14T07:29:01.507Z,69.1
2024-02-14T07:30:01.876Z,69.3
2024-02-14T07:31:01.244Z,69.3
2024-02-14T07:32:01.298Z,69.3
2024-02-14T07:33:01.474Z,69.3
2024-02-14T07:34:01.708Z,69.3
2024-02-14T07:35:01.298Z,69.3
2024-02-14T07:36:01.552Z,69.3
2024-02-14T07:37:01.600Z,69.3
2024-02-14T07:38:01.667Z,69.3
2024-02-14T07:39:01.734Z,69.3
2024-02-14T07:40:00.880Z,69.3
2024-02-14T07:41:01.195Z,69.3
2024-02-14T07:42:01.338Z,69.4
2024-02-14T07:43:01.377Z,69.3
2024-02-14T07:44:01.419Z,69.3
2024-02-14T07:45:01.723Z,69.3
2024-02-14T07:46:01.101Z,69.3
2024-02-14T07:47:03.346Z,69.3
2024-02-14T07:48:01.788Z,69.3
2024-02-14T07:49:01.071Z,69.3
2024-02-14T07:50:01.456Z,69.3
2024-02-14T07:51:01.629Z,69.3
2024-02-14T07:52:01.713Z,69.3
2024-02-14T07:53:00.821Z,69.3
2024-02-14T07:54:01.001Z,69.3
2024-02-14T07:55:01.099Z,69.3
2024-02-14T07:56:01.255Z,69.3
2024-02-14T07:57:01.362Z,69.3
2024-02-14T07:58:01.600Z,69.3
2024-02-14T07:59:01.782Z,69.3
2024-02-14T08:00:01.015Z,69.3
2024-02-14T08:01:01.350Z,69.3
2024-02-14T08:02:01.461Z,69.3
2024-02-14T08:03:01.760Z,69.3
2024-02-14T08:04:00.859Z,69.3
2024-02-14T08:05:01.220Z,69.3
2024-02-14T08:06:01.341Z,69.3
2024-02-14T08:07:01.512Z,69.3
2024-02-14T08:08:01.737Z,69.3
2024-02-14T08:09:01.813Z,69.3
2024-02-14T08:10:00.895Z,69.3
2024-02-14T08:11:00.946Z,69.3
2024-02-14T08:12:01.026Z,69.1
2024-02-14T08:13:01.095Z,69.1
2024-02-14T08:14:01.159Z,69.1
2024-02-14T08:15:01.318Z,69.1
2024-02-14T08:16:01.389Z,69.1
2024-02-14T08:17:01.479Z,69.1
2024-02-14T08:18:03.919Z,69.1
2024-02-14T08:20:01.143Z,69.1
2024-02-14T08:21:01.597Z,69.1
2024-02-14T08:22:00.856Z,69.1
2024-02-14T08:23:00.962Z,69.1
2024-02-14T08:24:02.171Z,69.1
2024-02-14T08:25:01.490Z,69.1
2024-02-14T08:26:01.717Z,69.1
2024-02-14T08:27:01.048Z,69.1
2024-02-14T08:28:01.169Z,69.1
2024-02-14T08:29:01.423Z,69.1
2024-02-14T08:30:01.665Z,69.1
2024-02-14T08:31:01.778Z,69.1
2024-02-14T08:32:01.863Z,69.1
2024-02-14T08:33:02.160Z,69.1
2024-02-14T08:34:02.496Z,69.1
2024-02-14T08:35:01.802Z,69.1
2024-02-14T08:36:02.329Z,69.1
2024-02-14T08:37:01.418Z,69.1
2024-02-14T08:38:01.437Z,69.1
2024-02-14T08:39:01.619Z,69.1
2024-02-14T08:40:01.717Z,69.1
2024-02-14T08:41:01.793Z,69.1
2024-02-14T08:42:00.869Z,69.1
2024-02-14T08:43:00.977Z,69.1
2024-02-14T08:44:01.379Z,69.1
2024-02-14T08:45:01.542Z,69.1
2024-02-14T08:46:01.668Z,68.9
2024-02-14T08:47:01.746Z,69.1
2024-02-14T08:48:01.222Z,69.1
2024-02-14T08:49:01.582Z,69.1
2024-02-14T08:50:01.896Z,69.1
2024-02-14T08:51:01.074Z,69.1
2024-02-14T08:52:01.200Z,69.1
2024-02-14T08:53:01.426Z,69.1
2024-02-14T08:54:01.573Z,69.1
2024-02-14T08:55:01.700Z,69.1
2024-02-14T08:56:01.782Z,69.1
2024-02-14T08:57:00.970Z,69.1
2024-02-14T08:58:01.057Z,69.1
2024-02-14T08:59:01.120Z,68.9
2024-02-14T09:00:01.584Z,68.9
2024-02-14T09:01:09.208Z,68.7
2024-02-14T09:03:01.830Z,68.7
2024-02-14T09:04:00.956Z,68.7
2024-02-14T09:05:01.378Z,68.5
2024-02-14T09:06:01.577Z,68.7
2024-02-14T09:07:01.717Z,68.5
2024-02-14T09:08:01.821Z,68.5
2024-02-14T09:09:00.915Z,68.5
2024-02-14T09:10:01.062Z,68.5
2024-02-14T09:11:01.098Z,68.5
2024-02-14T09:12:01.121Z,68.5
2024-02-14T09:13:01.465Z,68.5
2024-02-14T09:14:01.582Z,68.5
2024-02-14T09:15:01.685Z,68.5
2024-02-14T09:16:01.701Z,68.5
2024-02-14T09:17:01.866Z,68.5
2024-02-14T09:18:01.195Z,68.5
2024-02-14T09:19:01.307Z,68.5
2024-02-14T09:20:01.484Z,68.5
2024-02-14T09:21:01.809Z,68.5
2024-02-14T09:22:01.047Z,68.5
2024-02-14T09:23:01.156Z,68.5
2024-02-14T09:24:01.260Z,68.5
2024-02-14T09:25:01.358Z,68.5
2024-02-14T09:26:01.417Z,68.4
2024-02-14T09:27:01.559Z,68.4
2024-02-14T09:28:01.602Z,68.4
2024-02-14T09:29:01.663Z,68.4
2024-02-14T09:30:01.854Z,68.4
2024-02-14T09:31:01.391Z,68.4
2024-02-14T09:32:01.419Z,68.4
2024-02-14T09:33:01.753Z,68.4
2024-02-14T09:34:00.992Z,68.4
2024-02-14T09:35:01.298Z,68.4
2024-02-14T09:36:01.488Z,68.4
2024-02-14T09:37:01.535Z,68.4
2024-02-14T09:38:01.546Z,68.4
2024-02-14T09:39:02.415Z,68.4
2024-02-14T09:40:01.768Z,68.4
2024-02-14T09:41:00.797Z,68.4
2024-02-14T09:42:00.906Z,68.4
2024-02-14T09:43:01.027Z,68.4
2024-02-14T09:44:01.122Z,68.4
2024-02-14T09:45:01.270Z,68.4
2024-02-14T09:46:01.388Z,68.2
2024-02-14T09:47:01.433Z,68.2
2024-02-14T09:48:01.596Z,68.2
2024-02-14T09:49:01.955Z,68.2
2024-02-14T09:50:01.478Z,68.2
2024-02-14T09:51:01.579Z,68.2
2024-02-14T09:52:00.935Z,68.2
2024-02-14T09:53:01.072Z,68.2
2024-02-14T09:54:01.248Z,68.2
2024-02-14T09:55:01.413Z,68.2
2024-02-14T09:56:01.476Z,68.2
2024-02-14T09:57:01.780Z,68.2
2024-02-14T09:58:00.851Z,68.2
2024-02-14T09:59:01.008Z,68
2024-02-14T10:00:01.640Z,68
2024-02-14T10:01:00.944Z,68
2024-02-14T10:02:01.017Z,68
2024-02-14T10:03:01.238Z,68
2024-02-14T10:04:01.317Z,68
2024-02-14T10:05:01.674Z,68
2024-02-14T10:06:00.976Z,68
2024-02-14T10:07:01.100Z,68
2024-02-14T10:08:01.155Z,68
2024-02-14T10:09:04.252Z,68
2024-02-14T10:10:01.531Z,68
2024-02-14T10:11:01.289Z,67.8
2024-02-14T10:12:01.433Z,68
2024-02-14T10:13:01.506Z,67.8
2024-02-14T10:14:01.720Z,68
2024-02-14T10:15:00.921Z,67.8
2024-02-14T10:16:00.973Z,67.8
2024-02-14T10:17:01.448Z,67.8
2024-02-14T10:18:01.667Z,67.8
2024-02-14T10:19:01.464Z,67.8
2024-02-14T10:20:01.844Z,67.8
2024-02-14T10:21:01.271Z,67.8
2024-02-14T10:22:01.405Z,67.8
2024-02-14T10:23:01.455Z,67.6
2024-02-14T10:24:01.982Z,67.6
2024-02-14T10:25:01.252Z,67.6
2024-02-14T10:26:01.284Z,67.6
2024-02-14T10:27:01.311Z,67.6
2024-02-14T10:28:01.395Z,67.6
2024-02-14T10:29:01.634Z,67.5
2024-02-14T10:30:01.031Z,67.5
2024-02-14T10:31:01.206Z,67.5
2024-02-14T10:32:01.335Z,67.5
2024-02-14T10:33:09.832Z,67.5
2024-02-14T10:35:01.077Z,67.5
2024-02-14T10:36:03.111Z,67.5
2024-02-14T10:37:01.478Z,67.5
2024-02-14T10:38:01.651Z,67.3
2024-02-14T10:39:01.048Z,67.3
2024-02-14T10:40:01.185Z,67.3
2024-02-14T10:41:01.402Z,67.3
2024-02-14T10:42:01.557Z,67.3
2024-02-14T10:43:01.634Z,67.3
2024-02-14T10:44:01.745Z,67.3
2024-02-14T10:45:01.039Z,67.1
2024-02-14T10:46:01.868Z,67.1
2024-02-14T10:47:00.998Z,67.1
2024-02-14T10:48:01.205Z,67.1
2024-02-14T10:49:01.537Z,67.1
2024-02-14T10:50:01.366Z,67.1
2024-02-14T10:51:01.545Z,66.9
2024-02-14T10:52:01.768Z,67.1
2024-02-14T10:53:01.800Z,66.9
2024-02-14T10:54:01.301Z,66.9
2024-02-14T10:55:01.396Z,66.9
2024-02-14T10:56:01.580Z,66.9
2024-02-14T10:57:01.094Z,66.9
2024-02-14T10:58:01.432Z,66.9
2024-02-14T10:59:01.518Z,66.9
2024-02-14T11:00:01.696Z,66.9
2024-02-14T11:01:02.059Z,66.9
2024-02-14T11:02:01.250Z,66.9
2024-02-14T11:03:01.647Z,66.9
2024-02-14T11:04:01.767Z,66.7
2024-02-14T11:05:00.898Z,66.7
2024-02-14T11:06:01.205Z,66.9
2024-02-14T11:07:01.357Z,66.7
2024-02-14T11:08:01.545Z,66.7
2024-02-14T11:09:01.677Z,66.7
2024-02-14T11:10:01.220Z,66.7
2024-02-14T11:11:01.317Z,66.7
2024-02-14T11:12:01.509Z,66.6
2024-02-14T11:13:01.594Z,66.6
2024-02-14T11:14:00.847Z,66.6
2024-02-14T11:15:03.772Z,66.6
2024-02-14T11:16:01.460Z,66.6
2024-02-14T11:17:01.590Z,66.6
2024-02-14T11:18:01.810Z,66.6
2024-02-14T11:19:01.005Z,66.4
2024-02-14T11:20:01.639Z,66.4
2024-02-14T11:21:01.983Z,66.4
2024-02-14T11:22:01.090Z,66.4
2024-02-14T11:23:01.202Z,66.4
2024-02-14T11:24:01.272Z,66.4
2024-02-14T11:25:01.553Z,66.4
2024-02-14T11:26:01.646Z,66.4
2024-02-14T11:27:01.743Z,66.4
2024-02-14T11:28:00.838Z,66.4
2024-02-14T11:29:00.994Z,66.4
2024-02-14T11:30:01.654Z,66.4
2024-02-14T11:31:00.898Z,66.2
2024-02-14T11:32:01.215Z,66.2
2024-02-14T11:33:01.426Z,66.2
2024-02-14T11:34:01.657Z,66.2
2024-02-14T11:35:01.071Z,66.2
2024-02-14T11:36:01.185Z,66
2024-02-14T11:37:01.293Z,66
2024-02-14T11:38:01.306Z,66
2024-02-14T11:39:01.406Z,66
2024-02-14T11:40:01.514Z,66
2024-02-14T11:41:01.608Z,65.8
2024-02-14T11:42:00.972Z,66
2024-02-14T11:43:01.013Z,66
2024-02-14T11:44:01.361Z,66
2024-02-14T11:45:01.594Z,65.8
2024-02-14T11:46:01.707Z,65.8
2024-02-14T11:47:01.786Z,65.8
2024-02-14T11:48:01.066Z,65.8
2024-02-14T11:49:01.491Z,65.8
2024-02-14T11:50:01.742Z,65.8
2024-02-14T11:51:00.947Z,65.8
2024-02-14T11:52:01.055Z,65.8
2024-02-14T11:53:01.100Z,65.8
2024-02-14T11:54:01.164Z,65.8
2024-02-14T11:55:01.353Z,65.8
2024-02-14T11:56:01.385Z,65.8
2024-02-14T11:57:01.069Z,65.7
2024-02-14T11:58:01.129Z,65.7
2024-02-14T11:59:01.211Z,65.7
2024-02-14T12:00:01.388Z,65.7
2024-02-14T12:01:01.688Z,65.7
2024-02-14T12:02:01.775Z,65.7
2024-02-14T12:03:01.896Z,65.7
2024-02-14T12:04:01.125Z,65.7
2024-02-14T12:05:01.327Z,65.7
2024-02-14T12:06:01.539Z,65.7
2024-02-14T12:07:01.825Z,65.5
2024-02-14T12:08:00.946Z,65.5
2024-02-14T12:09:01.334Z,65.5
2024-02-14T12:10:01.474Z,65.5
2024-02-14T12:11:01.596Z,65.5
2024-02-14T12:12:01.684Z,65.5
2024-02-14T12:13:01.750Z,65.5
2024-02-14T12:14:01.361Z,65.5
2024-02-14T12:15:01.607Z,65.5
2024-02-14T12:16:01.735Z,65.3
2024-02-14T12:17:01.758Z,65.3
2024-02-14T12:18:01.469Z,65.3
2024-02-14T12:19:01.676Z,65.3
2024-02-14T12:20:01.885Z,65.3
2024-02-14T12:21:01.029Z,65.3
2024-02-14T12:22:01.087Z,65.3
2024-02-14T12:23:01.481Z,65.3
2024-02-14T12:24:01.530Z,65.3
2024-02-14T12:25:01.648Z,65.3
2024-02-14T12:26:01.723Z,65.3
2024-02-14T12:27:01.829Z,65.3
2024-02-14T12:28:00.904Z,65.3
2024-02-14T12:29:01.037Z,65.3
2024-02-14T12:30:01.146Z,65.3
2024-02-14T12:31:01.329Z,65.3
2024-02-14T12:32:01.373Z,65.3
2024-02-14T12:33:01.664Z,65.3
2024-02-14T12:34:01.815Z,65.3
2024-02-14T12:35:01.109Z,65.1
2024-02-14T12:36:01.316Z,65.1
2024-02-14T12:37:01.374Z,65.1
2024-02-14T12:38:01.385Z,65.1
2024-02-14T12:39:01.476Z,65.1
2024-02-14T12:40:01.791Z,65.1
2024-02-14T12:41:01.061Z,65.1
2024-02-14T12:42:01.205Z,65.1
2024-02-14T12:43:01.319Z,65.1
2024-02-14T12:44:01.662Z,65.1
2024-02-14T12:45:00.985Z,65.1
2024-02-14T12:46:01.057Z,65.1
2024-02-14T12:47:01.217Z,65.1
2024-02-14T12:48:01.354Z,65.1
2024-02-14T12:49:01.728Z,65.1
2024-02-14T12:50:01.241Z,65.1
2024-02-14T12:51:01.416Z,65.1
2024-02-14T12:52:01.525Z,65.1
2024-02-14T12:53:01.583Z,65.1
2024-02-14T12:54:01.720Z,65.1
2024-02-14T12:55:01.831Z,64.9
2024-02-14T12:56:00.899Z,64.9
2024-02-14T12:57:01.055Z,64.9
2024-02-14T12:58:06.226Z,64.9
2024-02-14T12:59:01.275Z,64.9
2024-02-14T13:00:01.475Z,64.9
2024-02-14T13:01:01.729Z,64.9
2024-02-14T13:02:00.996Z,64.9
2024-02-14T13:03:01.197Z,64.9
2024-02-14T13:04:01.522Z,64.9
2024-02-14T13:05:01.732Z,64.9
2024-02-14T13:06:01.850Z,64.9
2024-02-14T13:07:01.049Z,64.9
2024-02-14T13:08:01.176Z,64.9
2024-02-14T13:09:01.371Z,64.9
2024-02-14T13:10:01.520Z,64.9
2024-02-14T13:11:01.589Z,64.9
2024-02-14T13:12:01.725Z,64.8
2024-02-14T13:13:01.928Z,64.8
2024-02-14T13:14:01.035Z,64.8
2024-02-14T13:15:01.140Z,64.8
2024-02-14T13:16:01.384Z,64.8
2024-02-14T13:17:01.695Z,64.8
2024-02-14T13:18:01.194Z,64.8
2024-02-14T13:19:01.838Z,64.8
2024-02-14T13:20:01.428Z,64.8
2024-02-14T13:21:02.100Z,64.8
2024-02-14T13:22:01.387Z,64.6
2024-02-14T13:23:01.532Z,64.8
2024-02-14T13:24:01.698Z,64.6
2024-02-14T13:25:01.919Z,64.6
2024-02-14T13:26:01.073Z,64.8
2024-02-14T13:27:01.301Z,64.6
2024-02-14T13:28:01.491Z,64.6
2024-02-14T13:29:01.599Z,64.6
2024-02-14T13:30:01.803Z,64.6
2024-02-14T13:31:00.919Z,64.6
2024-02-14T13:32:01.185Z,64.6
2024-02-14T13:33:01.419Z,64.6
2024-02-14T13:34:02.034Z,64.6
2024-02-14T13:35:01.408Z,64.6
2024-02-14T13:36:01.595Z,64.6
2024-02-14T13:37:01.822Z,64.6
2024-02-14T13:38:01.016Z,64.6
2024-02-14T13:39:01.234Z,64.6
2024-02-14T13:40:01.395Z,64.4
2024-02-14T13:41:01.705Z,64.4